sensor_id;sensor_type;location;lat;lon;timestamp;P1;durP1;ratioP1;P2;durP2;ratioP2
18592;SDS011;9426;54.118;17.948;2024-02-26T00:04:51;108.77;;;45.23;;
18592;SDS011;9426;54.118;17.948;2024-02-26T00:10:15;95.17;;;42.93;;
18592;SDS011;9426;54.118;17.948;2024-02-26T00:15:40;96.70;;;42.27;;
18592;SDS011;9426;54.118;17.948;2024-02-26T00:21:03;90.83;;;41.87;;
18592;SDS011;9426;54.118;17.948;2024-02-26T00:26:27;94.80;;;41.17;;
18592;SDS011;9426;54.118;17.948;2024-02-26T00:31:52;84.73;;;38.37;;
18592;SDS011;9426;54.118;17.948;2024-02-26T00:37:16;88.40;;;40.17;;
18592;SDS011;9426;54.118;17.948;2024-02-26T00:42:39;81.23;;;35.73;;
18592;SDS011;9426;54.118;17.948;2024-02-26T00:48:08;85.27;;;37.07;;
18592;SDS011;9426;54.118;17.948;2024-02-26T00:53:32;82.93;;;32.80;;
18592;SDS011;9426;54.118;17.948;2024-02-26T00:58:55;48.80;;;22.50;;
18592;SDS011;9426;54.118;17.948;2024-02-26T01:04:21;40.83;;;19.57;;
18592;SDS011;9426;54.118;17.948;2024-02-26T01:09:44;38.70;;;19.70;;
18592;SDS011;9426;54.118;17.948;2024-02-26T01:15:08;38.10;;;19.33;;
18592;SDS011;9426;54.118;17.948;2024-02-26T01:20:33;39.87;;;18.13;;
18592;SDS011;9426;54.118;17.948;2024-02-26T01:25:58;36.63;;;18.63;;
18592;SDS011;9426;54.118;17.948;2024-02-26T01:31:21;40.43;;;19.70;;
18592;SDS011;9426;54.118;17.948;2024-02-26T01:36:46;37.87;;;19.43;;
18592;SDS011;9426;54.118;17.948;2024-02-26T01:42:12;44.47;;;21.17;;
18592;SDS011;9426;54.118;17.948;2024-02-26T01:47:38;47.37;;;21.47;;
18592;SDS011;9426;54.118;17.948;2024-02-26T01:53:04;39.93;;;19.50;;
18592;SDS011;9426;54.118;17.948;2024-02-26T01:58:28;40.30;;;20.73;;
18592;SDS011;9426;54.118;17.948;2024-02-26T02:03:53;45.63;;;20.20;;
18592;SDS011;9426;54.118;17.948;2024-02-26T02:09:19;41.07;;;20.57;;
18592;SDS011;9426;54.118;17.948;2024-02-26T02:14:44;45.13;;;21.97;;
18592;SDS011;9426;54.118;17.948;2024-02-26T02:20:08;46.33;;;21.57;;
18592;SDS011;9426;54.118;17.948;2024-02-26T02:25:34;37.27;;;20.00;;
18592;SDS011;9426;54.118;17.948;2024-02-26T02:31:00;43.40;;;21.13;;
18592;SDS011;9426;54.118;17.948;2024-02-26T02:36:27;44.00;;;20.70;;
18592;SDS011;9426;54.118;17.948;2024-02-26T02:41:55;39.67;;;20.93;;
18592;SDS011;9426;54.118;17.948;2024-02-26T02:47:18;36.70;;;19.23;;
18592;SDS011;9426;54.118;17.948;2024-02-26T02:52:42;40.80;;;20.10;;
18592;SDS011;9426;54.118;17.948;2024-02-26T02:58:07;43.27;;;20.47;;
18592;SDS011;9426;54.118;17.948;2024-02-26T03:03:30;43.77;;;21.10;;
18592;SDS011;9426;54.118;17.948;2024-02-26T03:08:55;39.57;;;19.03;;
18592;SDS011;9426;54.118;17.948;2024-02-26T03:14:20;39.23;;;18.83;;
18592;SDS011;9426;54.118;17.948;2024-02-26T03:19:45;43.47;;;19.60;;
18592;SDS011;9426;54.118;17.948;2024-02-26T03:25:15;37.77;;;19.00;;
18592;SDS011;9426;54.118;17.948;2024-02-26T03:30:41;42.27;;;20.03;;
18592;SDS011;9426;54.118;17.948;2024-02-26T03:36:05;38.70;;;18.77;;
18592;SDS011;9426;54.118;17.948;2024-02-26T03:41:28;36.17;;;19.07;;
18592;SDS011;9426;54.118;17.948;2024-02-26T03:46:54;38.50;;;19.20;;
18592;SDS011;9426;54.118;17.948;2024-02-26T03:52:18;40.73;;;20.83;;
18592;SDS011;9426;54.118;17.948;2024-02-26T03:57:41;39.37;;;19.97;;
18592;SDS011;9426;54.118;17.948;2024-02-26T04:03:07;52.23;;;25.10;;
18592;SDS011;9426;54.118;17.948;2024-02-26T04:08:30;64.53;;;33.23;;
18592;SDS011;9426;54.118;17.948;2024-02-26T04:13:54;79.20;;;40.47;;
18592;SDS011;9426;54.118;17.948;2024-02-26T04:19:19;80.53;;;41.13;;
18592;SDS011;9426;54.118;17.948;2024-02-26T04:24:45;85.47;;;45.17;;
18592;SDS011;9426;54.118;17.948;2024-02-26T04:30:09;113.73;;;56.90;;
18592;SDS011;9426;54.118;17.948;2024-02-26T04:35:35;107.57;;;52.17;;
18592;SDS011;9426;54.118;17.948;2024-02-26T04:40:58;96.77;;;44.90;;
18592;SDS011;9426;54.118;17.948;2024-02-26T04:46:22;120.30;;;49.87;;
18592;SDS011;9426;54.118;17.948;2024-02-26T04:51:47;73.27;;;34.97;;
18592;SDS011;9426;54.118;17.948;2024-02-26T04:57:10;70.63;;;34.10;;
18592;SDS011;9426;54.118;17.948;2024-02-26T05:02:33;68.10;;;33.20;;
18592;SDS011;9426;54.118;17.948;2024-02-26T05:08:01;51.93;;;27.10;;
18592;SDS011;9426;54.118;17.948;2024-02-26T05:13:25;52.10;;;25.07;;
18592;SDS011;9426;54.118;17.948;2024-02-26T05:18:49;56.00;;;27.50;;
18592;SDS011;9426;54.118;17.948;2024-02-26T05:24:14;73.67;;;34.33;;
18592;SDS011;9426;54.118;17.948;2024-02-26T05:29:38;72.80;;;35.27;;
18592;SDS011;9426;54.118;17.948;2024-02-26T05:35:02;78.37;;;37.57;;
18592;SDS011;9426;54.118;17.948;2024-02-26T05:40:28;90.83;;;40.50;;
18592;SDS011;9426;54.118;17.948;2024-02-26T05:45:52;102.63;;;46.70;;
18592;SDS011;9426;54.118;17.948;2024-02-26T05:51:16;104.60;;;46.10;;
18592;SDS011;9426;54.118;17.948;2024-02-26T05:56:41;117.27;;;53.30;;
18592;SDS011;9426;54.118;17.948;2024-02-26T06:02:05;97.93;;;45.57;;
18592;SDS011;9426;54.118;17.948;2024-02-26T06:07:31;360.57;;;98.80;;
18592;SDS011;9426;54.118;17.948;2024-02-26T06:12:56;461.50;;;130.27;;
18592;SDS011;9426;54.118;17.948;2024-02-26T06:18:19;509.30;;;144.93;;
18592;SDS011;9426;54.118;17.948;2024-02-26T06:23:43;572.03;;;185.57;;
18592;SDS011;9426;54.118;17.948;2024-02-26T06:29:08;618.03;;;211.57;;
18592;SDS011;9426;54.118;17.948;2024-02-26T06:34:32;358.37;;;119.83;;
18592;SDS011;9426;54.118;17.948;2024-02-26T06:45:45;236.23;;;90.07;;
18592;SDS011;9426;54.118;17.948;2024-02-26T06:51:10;211.97;;;85.97;;
18592;SDS011;9426;54.118;17.948;2024-02-26T06:56:34;498.03;;;156.03;;
18592;SDS011;9426;54.118;17.948;2024-02-26T07:01:59;266.63;;;101.27;;
18592;SDS011;9426;54.118;17.948;2024-02-26T07:07:24;246.73;;;96.10;;
18592;SDS011;9426;54.118;17.948;2024-02-26T07:12:49;248.00;;;99.03;;
18592;SDS011;9426;54.118;17.948;2024-02-26T07:18:14;224.83;;;97.43;;
18592;SDS011;9426;54.118;17.948;2024-02-26T07:23:38;243.27;;;104.00;;
18592;SDS011;9426;54.118;17.948;2024-02-26T07:29:02;240.50;;;106.40;;
18592;SDS011;9426;54.118;17.948;2024-02-26T07:34:27;246.57;;;109.80;;
18592;SDS011;9426;54.118;17.948;2024-02-26T07:39:51;212.07;;;92.80;;
18592;SDS011;9426;54.118;17.948;2024-02-26T07:45:16;155.00;;;69.10;;
18592;SDS011;9426;54.118;17.948;2024-02-26T07:50:42;127.43;;;56.33;;
18592;SDS011;9426;54.118;17.948;2024-02-26T07:56:06;115.57;;;52.90;;
18592;SDS011;9426;54.118;17.948;2024-02-26T08:01:30;126.60;;;57.73;;
18592;SDS011;9426;54.118;17.948;2024-02-26T08:06:57;119.87;;;55.77;;
18592;SDS011;9426;54.118;17.948;2024-02-26T08:12:21;113.10;;;51.43;;
18592;SDS011;9426;54.118;17.948;2024-02-26T08:17:45;113.17;;;50.10;;
18592;SDS011;9426;54.118;17.948;2024-02-26T08:23:10;121.60;;;53.97;;
18592;SDS011;9426;54.118;17.948;2024-02-26T08:28:34;126.20;;;58.30;;
18592;SDS011;9426;54.118;17.948;2024-02-26T08:33:58;125.20;;;59.70;;
18592;SDS011;9426;54.118;17.948;2024-02-26T08:39:24;146.30;;;65.20;;
18592;SDS011;9426;54.118;17.948;2024-02-26T08:44:48;125.70;;;61.23;;
18592;SDS011;9426;54.118;17.948;2024-02-26T08:50:13;117.30;;;54.73;;
18592;SDS011;9426;54.118;17.948;2024-02-26T08:55:41;89.40;;;45.33;;
18592;SDS011;9426;54.118;17.948;2024-02-26T09:01:04;93.43;;;47.37;;
18592;SDS011;9426;54.118;17.948;2024-02-26T09:06:30;78.80;;;41.57;;
18592;SDS011;9426;54.118;17.948;2024-02-26T09:11:55;75.80;;;39.60;;
18592;SDS011;9426;54.118;17.948;2024-02-26T09:17:18;72.40;;;39.97;;
18592;SDS011;9426;54.118;17.948;2024-02-26T09:22:42;80.27;;;42.37;;
18592;SDS011;9426;54.118;17.948;2024-02-26T09:28:07;75.33;;;39.63;;
18592;SDS011;9426;54.118;17.948;2024-02-26T09:33:31;75.43;;;40.60;;
18592;SDS011;9426;54.118;17.948;2024-02-26T09:38:55;66.80;;;37.73;;
18592;SDS011;9426;54.118;17.948;2024-02-26T09:44:22;62.57;;;33.93;;
18592;SDS011;9426;54.118;17.948;2024-02-26T09:49:47;70.53;;;35.03;;
18592;SDS011;9426;54.118;17.948;2024-02-26T09:55:11;59.40;;;32.03;;
18592;SDS011;9426;54.118;17.948;2024-02-26T10:00:37;59.87;;;31.47;;
18592;SDS011;9426;54.118;17.948;2024-02-26T10:06:02;51.90;;;28.17;;
18592;SDS011;9426;54.118;17.948;2024-02-26T10:11:27;46.20;;;26.23;;
18592;SDS011;9426;54.118;17.948;2024-02-26T10:16:53;46.87;;;24.43;;
18592;SDS011;9426;54.118;17.948;2024-02-26T10:22:17;41.67;;;24.33;;
18592;SDS011;9426;54.118;17.948;2024-02-26T10:27:41;44.03;;;24.40;;
18592;SDS011;9426;54.118;17.948;2024-02-26T10:33:06;35.13;;;21.30;;
18592;SDS011;9426;54.118;17.948;2024-02-26T10:38:31;39.67;;;20.37;;
18592;SDS011;9426;54.118;17.948;2024-02-26T10:43:55;35.23;;;18.67;;
18592;SDS011;9426;54.118;17.948;2024-02-26T10:49:20;29.80;;;17.60;;
18592;SDS011;9426;54.118;17.948;2024-02-26T10:54:45;32.23;;;16.53;;
18592;SDS011;9426;54.118;17.948;2024-02-26T11:00:14;29.83;;;15.47;;
18592;SDS011;9426;54.118;17.948;2024-02-26T11:05:40;20.13;;;10.67;;
18592;SDS011;9426;54.118;17.948;2024-02-26T11:11:04;15.47;;;7.07;;
18592;SDS011;9426;54.118;17.948;2024-02-26T11:16:28;15.23;;;7.70;;
18592;SDS011;9426;54.118;17.948;2024-02-26T11:21:54;13.80;;;7.23;;
18592;SDS011;9426;54.118;17.948;2024-02-26T11:27:21;13.33;;;7.30;;
18592;SDS011;9426;54.118;17.948;2024-02-26T11:32:47;15.30;;;7.53;;
18592;SDS011;9426;54.118;17.948;2024-02-26T11:38:19;18.13;;;8.93;;
18592;SDS011;9426;54.118;17.948;2024-02-26T11:43:50;13.53;;;8.03;;
18592;SDS011;9426;54.118;17.948;2024-02-26T11:49:30;12.70;;;7.77;;
18592;SDS011;9426;54.118;17.948;2024-02-26T11:54:57;17.33;;;8.40;;
18592;SDS011;9426;54.118;17.948;2024-02-26T12:00:21;16.77;;;7.97;;
18592;SDS011;9426;54.118;17.948;2024-02-26T12:05:45;13.77;;;6.13;;
18592;SDS011;9426;54.118;17.948;2024-02-26T12:11:15;12.53;;;6.37;;
18592;SDS011;9426;54.118;17.948;2024-02-26T12:16:39;13.87;;;7.87;;
18592;SDS011;9426;54.118;17.948;2024-02-26T12:22:04;14.47;;;7.37;;
18592;SDS011;9426;54.118;17.948;2024-02-26T12:27:32;12.83;;;6.57;;
18592;SDS011;9426;54.118;17.948;2024-02-26T12:32:55;14.27;;;7.10;;
18592;SDS011;9426;54.118;17.948;2024-02-26T12:38:24;17.40;;;8.67;;
18592;SDS011;9426;54.118;17.948;2024-02-26T12:43:50;15.33;;;8.40;;
18592;SDS011;9426;54.118;17.948;2024-02-26T12:49:15;18.23;;;9.97;;
18592;SDS011;9426;54.118;17.948;2024-02-26T12:54:40;15.33;;;9.10;;
18592;SDS011;9426;54.118;17.948;2024-02-26T13:00:06;16.63;;;8.40;;
18592;SDS011;9426;54.118;17.948;2024-02-26T13:05:32;14.50;;;7.50;;
18592;SDS011;9426;54.118;17.948;2024-02-26T13:10:58;12.17;;;7.03;;
18592;SDS011;9426;54.118;17.948;2024-02-26T13:16:24;17.40;;;8.17;;
18592;SDS011;9426;54.118;17.948;2024-02-26T13:21:49;15.27;;;6.27;;
18592;SDS011;9426;54.118;17.948;2024-02-26T13:27:13;15.53;;;6.23;;
18592;SDS011;9426;54.118;17.948;2024-02-26T13:32:46;13.47;;;6.47;;
18592;SDS011;9426;54.118;17.948;2024-02-26T13:38:10;8.10;;;4.90;;
18592;SDS011;9426;54.118;17.948;2024-02-26T13:43:36;9.20;;;5.47;;
18592;SDS011;9426;54.118;17.948;2024-02-26T13:49:02;16.40;;;7.90;;
18592;SDS011;9426;54.118;17.948;2024-02-26T13:54:26;12.57;;;6.90;;
18592;SDS011;9426;54.118;17.948;2024-02-26T13:59:49;16.23;;;7.93;;
18592;SDS011;9426;54.118;17.948;2024-02-26T14:05:15;18.57;;;8.47;;
18592;SDS011;9426;54.118;17.948;2024-02-26T14:10:39;15.07;;;7.10;;
18592;SDS011;9426;54.118;17.948;2024-02-26T14:16:02;16.57;;;7.37;;
18592;SDS011;9426;54.118;17.948;2024-02-26T14:21:28;20.83;;;10.17;;
18592;SDS011;9426;54.118;17.948;2024-02-26T14:26:52;23.30;;;10.47;;
18592;SDS011;9426;54.118;17.948;2024-02-26T14:32:16;17.73;;;8.53;;
18592;SDS011;9426;54.118;17.948;2024-02-26T14:37:41;28.87;;;12.23;;
18592;SDS011;9426;54.118;17.948;2024-02-26T14:43:06;24.20;;;11.70;;
18592;SDS011;9426;54.118;17.948;2024-02-26T14:48:31;28.20;;;13.67;;
18592;SDS011;9426;54.118;17.948;2024-02-26T14:53:56;23.77;;;12.53;;
18592;SDS011;9426;54.118;17.948;2024-02-26T14:59:25;27.60;;;14.40;;
18592;SDS011;9426;54.118;17.948;2024-02-26T15:04:49;33.00;;;16.13;;
18592;SDS011;9426;54.118;17.948;2024-02-26T15:10:14;35.73;;;18.00;;
18592;SDS011;9426;54.118;17.948;2024-02-26T15:15:37;39.13;;;20.57;;
18592;SDS011;9426;54.118;17.948;2024-02-26T15:21:02;33.63;;;19.53;;
18592;SDS011;9426;54.118;17.948;2024-02-26T15:26:30;39.77;;;21.10;;
18592;SDS011;9426;54.118;17.948;2024-02-26T15:31:53;38.13;;;19.83;;
18592;SDS011;9426;54.118;17.948;2024-02-26T15:37:17;40.10;;;19.90;;
18592;SDS011;9426;54.118;17.948;2024-02-26T15:42:42;34.07;;;20.50;;
18592;SDS011;9426;54.118;17.948;2024-02-26T15:48:06;76.83;;;33.13;;
18592;SDS011;9426;54.118;17.948;2024-02-26T15:53:31;143.80;;;57.43;;
18592;SDS011;9426;54.118;17.948;2024-02-26T15:58:56;64.27;;;31.83;;
18592;SDS011;9426;54.118;17.948;2024-02-26T16:04:19;43.83;;;20.83;;
18592;SDS011;9426;54.118;17.948;2024-02-26T16:09:44;46.23;;;22.27;;
18592;SDS011;9426;54.118;17.948;2024-02-26T16:15:13;64.47;;;27.83;;
18592;SDS011;9426;54.118;17.948;2024-02-26T16:20:37;57.63;;;24.70;;
18592;SDS011;9426;54.118;17.948;2024-02-26T16:26:02;53.03;;;26.10;;
18592;SDS011;9426;54.118;17.948;2024-02-26T16:31:27;46.30;;;22.57;;
18592;SDS011;9426;54.118;17.948;2024-02-26T16:36:51;43.80;;;20.97;;
18592;SDS011;9426;54.118;17.948;2024-02-26T16:42:18;44.20;;;20.33;;
18592;SDS011;9426;54.118;17.948;2024-02-26T16:47:46;70.13;;;27.83;;
18592;SDS011;9426;54.118;17.948;2024-02-26T16:53:12;69.90;;;31.83;;
18592;SDS011;9426;54.118;17.948;2024-02-26T16:58:36;73.07;;;34.43;;
18592;SDS011;9426;54.118;17.948;2024-02-26T17:04:03;77.00;;;37.27;;
18592;SDS011;9426;54.118;17.948;2024-02-26T17:09:27;80.30;;;36.63;;
18592;SDS011;9426;54.118;17.948;2024-02-26T17:14:50;74.83;;;35.03;;
18592;SDS011;9426;54.118;17.948;2024-02-26T17:20:16;75.27;;;35.07;;
18592;SDS011;9426;54.118;17.948;2024-02-26T17:25:40;81.20;;;36.20;;
18592;SDS011;9426;54.118;17.948;2024-02-26T17:31:05;69.63;;;34.40;;
18592;SDS011;9426;54.118;17.948;2024-02-26T17:36:30;57.40;;;28.23;;
18592;SDS011;9426;54.118;17.948;2024-02-26T17:41:56;57.47;;;27.37;;
18592;SDS011;9426;54.118;17.948;2024-02-26T17:47:20;53.27;;;27.60;;
18592;SDS011;9426;54.118;17.948;2024-02-26T17:52:45;48.23;;;26.30;;
18592;SDS011;9426;54.118;17.948;2024-02-26T17:58:10;53.27;;;28.40;;
18592;SDS011;9426;54.118;17.948;2024-02-26T18:03:41;107.23;;;55.60;;
18592;SDS011;9426;54.118;17.948;2024-02-26T18:09:06;120.43;;;57.40;;
18592;SDS011;9426;54.118;17.948;2024-02-26T18:14:31;86.63;;;44.90;;
18592;SDS011;9426;54.118;17.948;2024-02-26T18:19:54;100.63;;;47.00;;
18592;SDS011;9426;54.118;17.948;2024-02-26T18:25:20;91.43;;;47.17;;
18592;SDS011;9426;54.118;17.948;2024-02-26T18:30:46;87.97;;;45.33;;
18592;SDS011;9426;54.118;17.948;2024-02-26T18:36:09;103.17;;;48.30;;
18592;SDS011;9426;54.118;17.948;2024-02-26T18:41:35;100.43;;;51.53;;
18592;SDS011;9426;54.118;17.948;2024-02-26T18:46:59;111.07;;;52.43;;
18592;SDS011;9426;54.118;17.948;2024-02-26T18:52:22;110.30;;;50.30;;
18592;SDS011;9426;54.118;17.948;2024-02-26T18:57:47;100.33;;;47.33;;
18592;SDS011;9426;54.118;17.948;2024-02-26T19:03:11;99.73;;;46.33;;
18592;SDS011;9426;54.118;17.948;2024-02-26T19:08:34;107.50;;;53.70;;
18592;SDS011;9426;54.118;17.948;2024-02-26T19:13:59;109.23;;;48.83;;
18592;SDS011;9426;54.118;17.948;2024-02-26T19:19:24;123.80;;;69.83;;
18592;SDS011;9426;54.118;17.948;2024-02-26T19:24:48;152.10;;;57.23;;
18592;SDS011;9426;54.118;17.948;2024-02-26T19:30:14;99.40;;;47.37;;
18592;SDS011;9426;54.118;17.948;2024-02-26T19:35:38;85.57;;;39.67;;
18592;SDS011;9426;54.118;17.948;2024-02-26T19:41:02;61.60;;;30.30;;
18592;SDS011;9426;54.118;17.948;2024-02-26T19:46:27;61.23;;;28.80;;
18592;SDS011;9426;54.118;17.948;2024-02-26T19:51:50;64.67;;;30.73;;
18592;SDS011;9426;54.118;17.948;2024-02-26T19:57:14;62.43;;;30.27;;
18592;SDS011;9426;54.118;17.948;2024-02-26T20:02:39;60.53;;;31.53;;
18592;SDS011;9426;54.118;17.948;2024-02-26T20:08:03;76.40;;;33.83;;
18592;SDS011;9426;54.118;17.948;2024-02-26T20:13:31;74.20;;;34.00;;
18592;SDS011;9426;54.118;17.948;2024-02-26T20:19:17;54.00;;;27.67;;
18592;SDS011;9426;54.118;17.948;2024-02-26T20:24:43;70.53;;;32.57;;
18592;SDS011;9426;54.118;17.948;2024-02-26T20:30:09;56.17;;;29.47;;
18592;SDS011;9426;54.118;17.948;2024-02-26T20:35:46;69.90;;;30.77;;
18592;SDS011;9426;54.118;17.948;2024-02-26T20:41:11;63.53;;;30.43;;
18592;SDS011;9426;54.118;17.948;2024-02-26T20:46:34;59.63;;;28.80;;
18592;SDS011;9426;54.118;17.948;2024-02-26T20:52:06;50.53;;;27.70;;
18592;SDS011;9426;54.118;17.948;2024-02-26T20:57:29;46.53;;;24.57;;
18592;SDS011;9426;54.118;17.948;2024-02-26T21:02:57;46.00;;;25.93;;
18592;SDS011;9426;54.118;17.948;2024-02-26T21:08:26;37.57;;;22.20;;
18592;SDS011;9426;54.118;17.948;2024-02-26T21:13:53;45.20;;;24.50;;
18592;SDS011;9426;54.118;17.948;2024-02-26T21:19:21;53.80;;;26.47;;
18592;SDS011;9426;54.118;17.948;2024-02-26T21:24:51;52.60;;;25.23;;
18592;SDS011;9426;54.118;17.948;2024-02-26T21:30:16;50.60;;;24.83;;
18592;SDS011;9426;54.118;17.948;2024-02-26T21:35:43;48.93;;;24.73;;
18592;SDS011;9426;54.118;17.948;2024-02-26T21:41:11;54.50;;;25.67;;
18592;SDS011;9426;54.118;17.948;2024-02-26T21:47:01;46.10;;;24.47;;
18592;SDS011;9426;54.118;17.948;2024-02-26T21:52:33;42.97;;;22.50;;
18592;SDS011;9426;54.118;17.948;2024-02-26T21:58:10;47.47;;;23.30;;
18592;SDS011;9426;54.118;17.948;2024-02-26T22:03:41;35.47;;;19.47;;
18592;SDS011;9426;54.118;17.948;2024-02-26T22:09:08;42.43;;;22.77;;
18592;SDS011;9426;54.118;17.948;2024-02-26T22:14:34;43.00;;;24.57;;
18592;SDS011;9426;54.118;17.948;2024-02-26T22:19:58;42.70;;;24.93;;
18592;SDS011;9426;54.118;17.948;2024-02-26T22:25:23;50.77;;;24.60;;
18592;SDS011;9426;54.118;17.948;2024-02-26T22:30:48;47.07;;;24.77;;
18592;SDS011;9426;54.118;17.948;2024-02-26T22:36:11;47.77;;;24.10;;
18592;SDS011;9426;54.118;17.948;2024-02-26T22:41:39;40.03;;;23.40;;
18592;SDS011;9426;54.118;17.948;2024-02-26T22:47:06;44.83;;;23.20;;
18592;SDS011;9426;54.118;17.948;2024-02-26T22:52:30;44.80;;;24.40;;
18592;SDS011;9426;54.118;17.948;2024-02-26T22:57:54;46.50;;;24.70;;
18592;SDS011;9426;54.118;17.948;2024-02-26T23:03:22;46.60;;;25.53;;
18592;SDS011;9426;54.118;17.948;2024-02-26T23:08:47;44.57;;;24.17;;
18592;SDS011;9426;54.118;17.948;2024-02-26T23:14:14;48.47;;;25.60;;
18592;SDS011;9426;54.118;17.948;2024-02-26T23:19:42;49.87;;;24.93;;
18592;SDS011;9426;54.118;17.948;2024-02-26T23:25:06;45.80;;;23.83;;
18592;SDS011;9426;54.118;17.948;2024-02-26T23:30:31;45.47;;;24.23;;
18592;SDS011;9426;54.118;17.948;2024-02-26T23:35:56;44.00;;;24.23;;
18592;SDS011;9426;54.118;17.948;2024-02-26T23:41:19;44.77;;;25.17;;
18592;SDS011;9426;54.118;17.948;2024-02-26T23:46:44;46.47;;;24.73;;
18592;SDS011;9426;54.118;17.948;2024-02-26T23:52:10;45.23;;;25.20;;
18592;SDS011;9426;54.118;17.948;2024-02-26T23:57:33;43.20;;;24.67;;
